Time;durP1;ratioP1;P1;durP2;ratioP2;P2;SDS_P1;SDS_P2;PMS_P1;PMS_P2;Temp;Humidity;BMP_temperature;BMP_pressure;BME280_temperature;BME280_humidity;BME280_pressure;Samples;Min_cycle;Max_cycle;Signal;HPM_P1;HPM_P2
2022/09/04 00:02:02;;;;;;;;;;;16.90;99.90;;;;;;5084000;28;19925;-56
2022/09/04 00:04:35;;;;;;;;;;;16.90;99.90;;;;;;5083941;28;19924;-57
2022/09/04 00:07:26;;;;;;;;;;;16.90;99.90;;;;;;5068587;28;19924;-56
2022/09/04 00:10:12;;;;;;;;;;;16.90;99.90;;;;;;5099269;28;19932;-56
2022/09/04 00:13:03;;;;;;;;;;;16.90;99.90;;;;;;5104596;28;19932;-54
2022/09/04 00:15:52;;;;;;;;;;;16.90;99.90;;;;;;5067968;28;19931;-54
2022/09/04 00:18:33;;;;;;;;;;;16.90;99.90;;;;;;5074832;28;19974;-55
2022/09/04 00:21:20;;;;;;;;;;;16.90;99.90;;;;;;5068202;28;19929;-54
2022/09/04 00:23:54;;;;;;;;;;;16.90;99.90;;;;;;5103364;28;19924;-55
2022/09/04 00:26:26;;;;;;;;;;;16.90;99.90;;;;;;5088255;28;19924;-54
2022/09/04 00:28:55;;;;;;;;;;;16.90;99.90;;;;;;5078485;28;20184;-55
2022/09/04 00:31:32;;;;;;;;;;;17.00;99.90;;;;;;5066872;28;20423;-55
2022/09/04 00:34:12;;;;;;;;;;;17.00;99.90;;;;;;5092189;28;19931;-54
2022/09/04 00:36:42;;;;;;;;;;;17.00;99.90;;;;;;5081219;28;19935;-55
2022/09/04 00:39:32;;;;;;;;;;;17.00;99.90;;;;;;5099320;28;20523;-57
2022/09/04 00:42:03;;;;;;;;;;;17.00;99.90;;;;;;5091565;28;19935;-56
2022/09/04 00:44:30;;;;;;;;;;;17.00;99.90;;;;;;5078646;28;19925;-54
2022/09/04 00:47:09;;;;;;;;;;;17.00;99.90;;;;;;5070356;28;19924;-56
2022/09/04 00:49:36;;;;;;;;;;;17.10;99.90;;;;;;5105170;28;19930;-55
2022/09/04 00:52:09;;;;;;;;;;;17.10;99.90;;;;;;5085374;28;19929;-57
2022/09/04 00:54:51;;;;;;;;;;;17.10;99.90;;;;;;5090120;28;19924;-57
2022/09/04 00:57:28;;;;;;;;;;;17.10;99.90;;;;;;5090545;28;19928;-57
2022/09/04 01:00:07;;;;;;;;;;;17.10;99.90;;;;;;5085115;28;19924;-56
2022/09/04 01:02:53;;;;;;;;;;;17.10;99.90;;;;;;5069191;28;19925;-54
2022/09/04 01:05:30;;;;;;;;;;;17.10;99.90;;;;;;5083845;28;19935;-56
2022/09/04 01:08:07;;;;;;;;;;;17.10;99.90;;;;;;5085764;28;19935;-56
2022/09/04 01:10:45;;;;;;;;;;;17.10;99.90;;;;;;5091337;28;20299;-56
2022/09/04 01:13:13;;;;;;;;;;;17.10;99.90;;;;;;5089467;28;19924;-57
2022/09/04 01:15:44;;;;;;;;;;;17.10;99.90;;;;;;5071265;28;19928;-55
2022/09/04 01:18:20;;;;;;;;;;;17.10;99.90;;;;;;5074492;28;19931;-55
2022/09/04 01:21:01;;;;;;;;;;;17.10;99.90;;;;;;5091627;28;19931;-56
2022/09/04 01:23:29;;;;;;;;;;;17.10;99.90;;;;;;5087544;28;19935;-57
2022/09/04 01:26:08;;;;;;;;;;;17.10;99.90;;;;;;5073312;28;19943;-57
2022/09/04 01:28:55;;;;;;;;;;;17.10;99.90;;;;;;5074026;28;19925;-55
2022/09/04 01:31:37;;;;;;;;;;;17.10;99.90;;;;;;5075414;28;19925;-57
2022/09/04 01:34:20;;;;;;;;;;;17.10;99.90;;;;;;5075608;28;19939;-56
2022/09/04 01:37:04;;;;;;;;;;;17.10;99.90;;;;;;5078294;28;21775;-57
2022/09/04 01:39:34;;;;;;;;;;;17.00;99.90;;;;;;5090652;28;19932;-57
2022/09/04 01:42:04;;;;;;;;;;;17.00;99.90;;;;;;5075247;28;19947;-56
2022/09/04 01:44:32;;;;;;;;;;;17.00;99.90;;;;;;5073775;28;19932;-56
2022/09/04 01:47:03;;;;;;;;;;;17.00;99.90;;;;;;5087974;28;19940;-55
2022/09/04 01:49:33;;;;;;;;;;;16.90;99.90;;;;;;5092910;28;20401;-55
2022/09/04 01:52:06;;;;;;;;;;;16.90;99.90;;;;;;5093715;28;19924;-55
2022/09/04 01:54:34;;;;;;;;;;;16.90;99.90;;;;;;5074947;28;19924;-54
2022/09/04 01:57:01;;;;;;;;;;;16.90;99.90;;;;;;5078044;28;19931;-55
2022/09/04 01:59:31;;;;;;;;;;;16.80;99.90;;;;;;5072893;28;19925;-55
2022/09/04 02:02:14;;;;;;;;;;;16.90;99.90;;;;;;5073436;28;19925;-55
2022/09/04 02:05:00;;;;;;;;;;;16.90;99.90;;;;;;5086673;28;19924;-56
2022/09/04 02:07:39;;;;;;;;;;;16.80;99.90;;;;;;5113813;28;20306;-56
2022/09/04 02:10:07;;;;;;;;;;;16.80;99.90;;;;;;5091539;28;19924;-55
2022/09/04 02:12:52;;;;;;;;;;;16.80;99.90;;;;;;5093355;28;19931;-55
2022/09/04 02:15:30;;;;;;;;;;;16.80;99.90;;;;;;5073075;28;19944;-54
2022/09/04 02:18:12;;;;;;;;;;;16.80;99.90;;;;;;5073832;28;19924;-55
2022/09/04 02:20:45;;;;;;;;;;;16.80;99.90;;;;;;5072857;28;19935;-55
2022/09/04 02:23:50;;;;;;;;;;;16.80;99.90;;;;;;5073201;28;19931;-55
2022/09/04 02:26:21;;;;;;;;;;;16.80;99.90;;;;;;5070490;28;19932;-55
2022/09/04 02:29:01;;;;;;;;;;;16.80;99.90;;;;;;5086748;28;19931;-54
2022/09/04 02:31:39;;;;;;;;;;;16.80;99.90;;;;;;5076658;28;19925;-55
2022/09/04 02:34:06;;;;;;;;;;;16.80;99.90;;;;;;5072646;28;19924;-56
2022/09/04 02:36:40;;;;;;;;;;;16.80;99.90;;;;;;5104512;28;19939;-55
2022/09/04 02:39:07;;;;;;;;;;;16.80;99.90;;;;;;5075809;28;19932;-55
2022/09/04 02:41:49;;;;;;;;;;;16.80;99.90;;;;;;5072703;28;19932;-55
2022/09/04 02:44:23;;;;;;;;;;;16.80;99.90;;;;;;5073045;28;20296;-55
2022/09/04 02:46:50;;;;;;;;;;;16.80;99.90;;;;;;5072330;28;19932;-54
2022/09/04 02:49:50;;;;;;;;;;;16.70;99.90;;;;;;5072054;28;19924;-55
2022/09/04 02:52:17;;;;;;;;;;;16.70;99.90;;;;;;5070257;28;19925;-55
2022/09/04 02:55:03;;;;;;;;;;;16.60;99.90;;;;;;5072322;28;20368;-54
2022/09/04 02:57:32;;;;;;;;;;;16.60;99.90;;;;;;5071765;28;19924;-56
2022/09/04 03:00:16;;;;;;;;;;;16.60;99.90;;;;;;5071474;28;19928;-56
2022/09/04 03:02:51;;;;;;;;;;;16.60;99.90;;;;;;5071589;28;20287;-55
2022/09/04 03:05:24;;;;;;;;;;;16.60;99.90;;;;;;5091604;28;19924;-54
2022/09/04 03:08:00;;;;;;;;;;;16.60;99.90;;;;;;5108622;28;19927;-56
2022/09/04 03:10:34;;;;;;;;;;;16.50;99.90;;;;;;5080267;28;19924;-55
2022/09/04 03:13:07;;;;;;;;;;;16.50;99.90;;;;;;5072044;28;19924;-55
2022/09/04 03:15:38;;;;;;;;;;;16.50;99.90;;;;;;5072282;28;19932;-55
2022/09/04 03:18:24;;;;;;;;;;;16.50;99.90;;;;;;5070423;28;19925;-56
2022/09/04 03:21:13;;;;;;;;;;;16.50;99.90;;;;;;5070529;28;19931;-55
2022/09/04 03:23:59;;;;;;;;;;;16.50;99.90;;;;;;5070709;28;19932;-55
2022/09/04 03:26:30;;;;;;;;;;;16.50;99.90;;;;;;5072008;28;19932;-54
2022/09/04 03:29:05;;;;;;;;;;;16.50;99.90;;;;;;5072606;28;20310;-55
2022/09/04 03:31:49;;;;;;;;;;;16.60;99.90;;;;;;5074350;28;19931;-54
2022/09/04 03:34:17;;;;;;;;;;;16.60;99.90;;;;;;5071893;28;19932;-55
2022/09/04 03:36:47;;;;;;;;;;;16.50;99.90;;;;;;5084143;28;19928;-54
2022/09/04 03:39:33;;;;;;;;;;;16.50;99.90;;;;;;5071691;28;19925;-55
2022/09/04 03:42:13;;;;;;;;;;;16.50;99.90;;;;;;5075118;28;19936;-54
2022/09/04 03:44:53;;;;;;;;;;;16.50;99.90;;;;;;5072025;28;19936;-54
2022/09/04 03:47:32;;;;;;;;;;;16.50;99.90;;;;;;5074192;28;19931;-56
2022/09/04 03:50:11;;;;;;;;;;;16.40;99.90;;;;;;5071700;28;19925;-57
2022/09/04 03:52:38;;;;;;;;;;;16.40;99.90;;;;;;5071646;28;19924;-57
2022/09/04 03:55:24;;;;;;;;;;;16.30;99.90;;;;;;5069958;28;20295;-56
2022/09/04 03:57:55;;;;;;;;;;;16.30;99.90;;;;;;5071800;28;19924;-57
2022/09/04 04:00:22;;;;;;;;;;;16.30;99.90;;;;;;5071807;28;19925;-56
2022/09/04 04:03:08;;;;;;;;;;;16.20;99.90;;;;;;5071447;28;19924;-57
2022/09/04 04:05:42;;;;;;;;;;;16.20;99.90;;;;;;5091563;28;19923;-56
2022/09/04 04:08:14;;;;;;;;;;;16.20;99.90;;;;;;5073863;28;20303;-56
2022/09/04 04:10:55;;;;;;;;;;;16.20;99.90;;;;;;5071470;28;19924;-56
2022/09/04 04:13:23;;;;;;;;;;;16.20;99.90;;;;;;5075699;28;19931;-57
2022/09/04 04:15:50;;;;;;;;;;;16.10;99.90;;;;;;5075148;28;19928;-57
2022/09/04 04:18:36;;;;;;;;;;;16.10;99.90;;;;;;5075488;28;19925;-56
2022/09/04 04:21:07;;;;;;;;;;;16.10;99.90;;;;;;5075018;28;19925;-56
2022/09/04 04:23:57;;;;;;;;;;;16.10;99.90;;;;;;5075080;28;19925;-55
2022/09/04 04:26:39;;;;;;;;;;;16.10;99.90;;;;;;5058610;28;19924;-56
2022/09/04 04:29:42;;;;;;;;;;;16.10;99.90;;;;;;5073932;28;19924;-55
2022/09/04 04:32:27;;;;;;;;;;;16.10;99.90;;;;;;5016040;28;19936;-56
2022/09/04 04:35:02;;;;;;;;;;;16.10;99.90;;;;;;5074689;28;19931;-60
2022/09/04 04:37:42;;;;;;;;;;;16.20;99.90;;;;;;5095260;28;20494;-55
2022/09/04 04:40:19;;;;;;;;;;;16.20;99.90;;;;;;5091301;28;19935;-55
2022/09/04 04:43:09;;;;;;;;;;;16.20;99.90;;;;;;5074770;28;19924;-57
2022/09/04 04:45:52;;;;;;;;;;;16.20;99.90;;;;;;5095712;27;20423;-55
2022/09/04 04:48:22;;;;;;;;;;;16.30;99.90;;;;;;5080128;28;19935;-56
2022/09/04 04:51:11;;;;;;;;;;;16.30;99.90;;;;;;5071423;28;19925;-57
2022/09/04 04:54:05;;;;;;;;;;;16.30;99.90;;;;;;5073735;28;19936;-57
2022/09/04 04:56:49;;;;;;;;;;;16.30;99.90;;;;;;5056821;28;19924;-55
2022/09/04 04:59:22;;;;;;;;;;;16.40;99.90;;;;;;5073539;28;20291;-57
2022/09/04 05:01:55;;;;;;;;;;;16.40;99.90;;;;;;5072238;28;19932;-55
2022/09/04 05:04:41;;;;;;;;;;;16.40;99.90;;;;;;5067639;28;19932;-56
2022/09/04 05:07:18;;;;;;;;;;;16.40;99.90;;;;;;5069617;28;19925;-57
2022/09/04 05:09:57;;;;;;;;;;;16.50;99.90;;;;;;5072302;28;19924;-55
2022/09/04 05:12:42;;;;;;;;;;;16.50;99.90;;;;;;5076032;28;19932;-57
2022/09/04 05:15:15;;;;;;;;;;;16.40;99.90;;;;;;5070975;28;19928;-57
2022/09/04 05:17:50;;;;;;;;;;;16.40;99.90;;;;;;5073668;28;19925;-57
2022/09/04 05:20:36;;;;;;;;;;;16.40;99.90;;;;;;5079525;28;19924;-55
2022/09/04 05:23:24;;;;;;;;;;;16.50;99.90;;;;;;5085330;28;20291;-56
2022/09/04 05:25:58;;;;;;;;;;;16.40;99.90;;;;;;5088695;28;19924;-55
2022/09/04 05:28:32;;;;;;;;;;;16.50;99.90;;;;;;5086926;28;19928;-56
2022/09/04 05:31:06;;;;;;;;;;;16.50;99.90;;;;;;5067865;28;19999;-55
2022/09/04 05:33:33;;;;;;;;;;;16.50;99.90;;;;;;5095845;28;20370;-56
2022/09/04 05:36:01;;;;;;;;;;;16.50;99.90;;;;;;5071969;28;20525;-55
2022/09/04 05:38:38;;;;;;;;;;;16.60;99.90;;;;;;5073480;28;19931;-56
2022/09/04 05:41:11;;;;;;;;;;;16.60;99.90;;;;;;5081683;28;19928;-55
2022/09/04 05:43:41;;;;;;;;;;;16.70;99.90;;;;;;5070517;28;20426;-55
2022/09/04 05:46:29;;;;;;;;;;;16.70;99.90;;;;;;5075107;28;19936;-54
2022/09/04 05:49:09;;;;;;;;;;;16.70;99.90;;;;;;5069905;28;19925;-54
2022/09/04 05:51:54;;;;;;;;;;;16.70;99.90;;;;;;5070147;28;20379;-54
2022/09/04 05:54:30;;;;;;;;;;;16.70;99.90;;;;;;5104912;28;20496;-56
2022/09/04 05:57:00;;;;;;;;;;;16.70;99.90;;;;;;5109644;28;19946;-55
2022/09/04 05:59:46;;;;;;;;;;;16.70;99.90;;;;;;5069886;28;19925;-54
2022/09/04 06:02:25;;;;;;;;;;;16.70;99.90;;;;;;5089829;28;20453;-56
2022/09/04 06:05:10;;;;;;;;;;;16.70;99.90;;;;;;5084485;28;19930;-58
2022/09/04 06:07:43;;;;;;;;;;;16.80;99.90;;;;;;5086917;28;19924;-57
2022/09/04 06:10:29;;;;;;;;;;;16.70;99.90;;;;;;5087953;28;20410;-59
2022/09/04 06:13:12;;;;;;;;;;;16.80;99.90;;;;;;5089688;28;19924;-57
2022/09/04 06:15:42;;;;;;;;;;;16.80;99.90;;;;;;5090301;28;20287;-55
2022/09/04 06:18:24;;;;;;;;;;;16.80;99.90;;;;;;5082886;28;19958;-56
2022/09/04 06:21:10;;;;;;;;;;;16.80;99.90;;;;;;5069338;28;20372;-57
2022/09/04 06:23:58;;;;;;;;;;;16.80;99.90;;;;;;5073829;28;19932;-55
2022/09/04 06:26:32;;;;;;;;;;;16.90;99.90;;;;;;5068951;28;20399;-57
2022/09/04 06:29:08;;;;;;;;;;;16.90;99.90;;;;;;5074806;28;20516;-56
2022/09/04 06:31:36;;;;;;;;;;;16.90;99.90;;;;;;5069449;28;20160;-57
2022/09/04 06:34:22;;;;;;;;;;;16.90;99.90;;;;;;5079388;28;19925;-57
2022/09/04 06:37:02;;;;;;;;;;;16.90;99.90;;;;;;5069426;28;19948;-57
2022/09/04 06:39:44;;;;;;;;;;;17.00;99.90;;;;;;5082687;28;19932;-57
2022/09/04 06:42:26;;;;;;;;;;;17.00;99.90;;;;;;5083680;28;20395;-57
2022/09/04 06:44:56;;;;;;;;;;;17.00;99.90;;;;;;5082271;28;19935;-58
2022/09/04 06:47:31;;;;;;;;;;;17.00;99.90;;;;;;5072704;28;19924;-57
2022/09/04 06:50:18;;;;;;;;;;;17.00;99.90;;;;;;5072842;28;20396;-58
2022/09/04 06:53:05;;;;;;;;;;;17.10;99.90;;;;;;5083547;28;19924;-58
2022/09/04 06:55:38;;;;;;;;;;;17.10;99.90;;;;;;5072677;28;20338;-56
2022/09/04 06:58:09;;;;;;;;;;;17.10;99.90;;;;;;5078114;28;19943;-56
2022/09/04 07:00:45;;;;;;;;;;;17.20;99.90;;;;;;5089370;28;19928;-56
2022/09/04 07:03:15;;;;;;;;;;;17.20;99.90;;;;;;5078090;28;20407;-55
2022/09/04 07:06:01;;;;;;;;;;;17.30;99.90;;;;;;5073266;28;19932;-54
2022/09/04 07:09:01;;;;;;;;;;;17.30;99.90;;;;;;5069252;28;19932;-54
2022/09/04 07:11:41;;;;;;;;;;;17.30;99.90;;;;;;5056532;28;19947;-57
2022/09/04 07:14:18;;;;;;;;;;;17.40;99.90;;;;;;5075963;28;20214;-57
2022/09/04 07:16:49;;;;;;;;;;;17.40;99.90;;;;;;5098273;28;20291;-56
2022/09/04 07:19:40;;;;;;;;;;;17.50;99.90;;;;;;5091458;28;19924;-55
2022/09/04 07:22:30;;;;;;;;;;;17.50;99.90;;;;;;5062007;28;19931;-56
2022/09/04 07:25:09;;;;;;;;;;;17.50;99.90;;;;;;5088522;28;19931;-55
2022/09/04 07:27:43;;;;;;;;;;;17.50;99.90;;;;;;5086886;28;19924;-54
2022/09/04 07:30:12;;;;;;;;;;;17.60;99.90;;;;;;5069230;28;19939;-55
2022/09/04 07:32:56;;;;;;;;;;;17.60;99.90;;;;;;5063252;28;19931;-55
2022/09/04 07:35:29;;;;;;;;;;;17.70;99.90;;;;;;5080293;28;19932;-55
2022/09/04 07:38:02;;;;;;;;;;;17.70;99.90;;;;;;5083122;28;20311;-55
2022/09/04 07:40:35;;;;;;;;;;;17.80;99.90;;;;;;5069978;28;19924;-55
2022/09/04 07:43:08;;;;;;;;;;;17.70;99.90;;;;;;5083934;28;19932;-54
2022/09/04 07:45:37;;;;;;;;;;;17.80;99.90;;;;;;5069606;28;19924;-55
2022/09/04 07:48:10;;;;;;;;;;;17.80;99.90;;;;;;5083902;28;19924;-57
2022/09/04 07:51:02;;;;;;;;;;;17.90;99.90;;;;;;5076904;28;19932;-56
2022/09/04 07:53:32;;;;;;;;;;;17.90;99.90;;;;;;5085467;28;19924;-56
2022/09/04 07:56:05;;;;;;;;;;;18.00;99.90;;;;;;5095092;28;19924;-57
2022/09/04 07:58:38;;;;;;;;;;;18.00;99.90;;;;;;5095099;28;19931;-55
2022/09/04 08:01:15;;;;;;;;;;;18.10;99.90;;;;;;5084799;28;19924;-55
2022/09/04 08:04:03;;;;;;;;;;;18.10;99.90;;;;;;5090544;28;19924;-56
2022/09/04 08:06:41;;;;;;;;;;;18.10;99.90;;;;;;5092544;28;19931;-55
2022/09/04 08:09:27;;;;;;;;;;;18.20;99.90;;;;;;5077895;28;19931;-55
2022/09/04 08:11:59;;;;;;;;;;;18.30;99.90;;;;;;5075593;28;19928;-55
2022/09/04 08:14:27;;;;;;;;;;;18.30;99.90;;;;;;5088696;28;19924;-54
2022/09/04 08:17:04;;;;;;;;;;;18.40;99.90;;;;;;5075422;28;19924;-55
2022/09/04 08:19:46;;;;;;;;;;;18.40;99.90;;;;;;5077416;28;19932;-56
2022/09/04 08:22:18;;;;;;;;;;;18.50;99.90;;;;;;5077693;28;19931;-54
2022/09/04 08:24:59;;;;;;;;;;;18.50;99.90;;;;;;5094725;28;19928;-55
2022/09/04 08:27:37;;;;;;;;;;;18.50;99.90;;;;;;5094947;28;19924;-55
2022/09/04 08:30:13;;;;;;;;;;;18.50;99.90;;;;;;5079413;28;19932;-54
2022/09/04 08:32:59;;;;;;;;;;;18.60;99.90;;;;;;5091531;28;19931;-55
2022/09/04 08:35:32;;;;;;;;;;;18.60;99.90;;;;;;5079649;28;20398;-54
2022/09/04 08:38:08;;;;;;;;;;;18.70;99.90;;;;;;5091140;28;19924;-54
2022/09/04 08:40:55;;;;;;;;;;;18.80;99.90;;;;;;5081818;28;19935;-55
2022/09/04 08:43:23;;;;;;;;;;;18.90;99.90;;;;;;5087852;28;19924;-54
2022/09/04 08:46:10;;;;;;;;;;;18.90;99.90;;;;;;5086293;28;19928;-55
2022/09/04 08:48:38;;;;;;;;;;;19.00;99.90;;;;;;5085350;28;20291;-57
2022/09/04 08:51:05;;;;;;;;;;;19.10;99.90;;;;;;5093065;28;20085;-55
2022/09/04 08:53:52;;;;;;;;;;;19.10;99.90;;;;;;5102474;28;19923;-55
2022/09/04 08:56:24;;;;;;;;;;;19.10;99.90;;;;;;5094525;28;19924;-56
2022/09/04 08:58:52;;;;;;;;;;;19.10;99.90;;;;;;5090591;28;19931;-55
2022/09/04 09:01:24;;;;;;;;;;;19.00;99.90;;;;;;5091507;28;19928;-55
2022/09/04 09:04:10;;;;;;;;;;;19.00;99.90;;;;;;5084528;28;19935;-55
2022/09/04 09:06:44;;;;;;;;;;;18.90;99.90;;;;;;5097885;28;19924;-56
2022/09/04 09:09:11;;;;;;;;;;;18.90;99.90;;;;;;5093510;28;19924;-57
2022/09/04 09:11:57;;;;;;;;;;;18.90;99.90;;;;;;5091198;28;19932;-57
2022/09/04 09:14:39;;;;;;;;;;;18.90;99.90;;;;;;5091983;28;20444;-56
2022/09/04 09:17:11;;;;;;;;;;;19.00;99.90;;;;;;5080482;28;19923;-55
2022/09/04 09:19:46;;;;;;;;;;;19.10;99.90;;;;;;5084408;28;19924;-56
2022/09/04 09:22:16;;;;;;;;;;;19.20;99.90;;;;;;5088326;28;20307;-57
2022/09/04 09:24:50;;;;;;;;;;;19.30;99.90;;;;;;5091018;28;19931;-56
2022/09/04 09:27:23;;;;;;;;;;;19.40;99.90;;;;;;5087852;28;20392;-56
2022/09/04 09:30:04;;;;;;;;;;;19.50;99.90;;;;;;5089648;28;20387;-57
2022/09/04 09:32:51;;;;;;;;;;;19.60;99.90;;;;;;5086977;28;20573;-56
2022/09/04 09:35:37;;;;;;;;;;;19.70;99.90;;;;;;5087531;28;19931;-56
2022/09/04 09:38:19;;;;;;;;;;;19.80;99.90;;;;;;5084082;28;19931;-56
2022/09/04 09:40:46;;;;;;;;;;;19.80;99.90;;;;;;5074155;28;19924;-56
2022/09/04 09:43:17;;;;;;;;;;;19.80;99.90;;;;;;5079357;28;19928;-58
2022/09/04 09:45:50;;;;;;;;;;;19.90;99.90;;;;;;5085417;28;20287;-54
2022/09/04 09:48:24;;;;;;;;;;;20.00;99.90;;;;;;5076729;28;19925;-57
2022/09/04 09:50:54;;;;;;;;;;;19.90;99.90;;;;;;5071380;28;20549;-55
2022/09/04 09:53:31;;;;;;;;;;;20.00;99.90;;;;;;5083685;28;19950;-55
2022/09/04 09:56:13;;;;;;;;;;;20.00;99.90;;;;;;5082660;28;19943;-55
2022/09/04 09:59:10;;;;;;;;;;;20.00;99.90;;;;;;5073090;28;19932;-55
2022/09/04 10:01:50;;;;;;;;;;;20.00;99.90;;;;;;5045171;28;19939;-57
2022/09/04 10:04:27;;;;;;;;;;;20.00;99.90;;;;;;5079367;28;19924;-57
2022/09/04 10:07:06;;;;;;;;;;;19.90;99.90;;;;;;5090422;27;19939;-56
2022/09/04 10:09:40;;;;;;;;;;;19.80;99.90;;;;;;5075956;28;19929;-56
2022/09/04 10:12:26;;;;;;;;;;;19.70;99.90;;;;;;5072658;28;20391;-56
2022/09/04 10:14:59;;;;;;;;;;;19.70;99.90;;;;;;5075113;28;19928;-56
2022/09/04 10:18:05;;;;;;;;;;;19.60;99.90;;;;;;5086059;28;20375;-56
2022/09/04 10:20:54;;;;;;;;;;;19.60;99.90;;;;;;5049878;28;19935;-56
2022/09/04 10:23:45;;;;;;;;;;;19.70;99.90;;;;;;5051402;28;19932;-55
2022/09/04 10:26:33;;;;;;;;;;;19.70;99.90;;;;;;5065229;28;20291;-56
2022/09/04 10:29:13;;;;;;;;;;;19.70;99.90;;;;;;5071550;28;19939;-55
2022/09/04 10:31:44;;;;;;;;;;;19.70;99.90;;;;;;5069985;28;20399;-55
2022/09/04 10:34:16;;;;;;;;;;;19.80;99.90;;;;;;5090983;28;19939;-56
2022/09/04 10:36:52;;;;;;;;;;;19.80;99.90;;;;;;5076809;28;19929;-57
2022/09/04 10:42:45;;;;;;;;;;;19.80;99.90;;;;;;5073729;28;20421;-56
2022/09/04 10:45:12;;;;;;;;;;;20.00;99.90;;;;;;5083313;28;19936;-55
2022/09/04 10:47:40;;;;;;;;;;;20.10;99.90;;;;;;5078947;28;19935;-56
2022/09/04 10:50:15;;;;;;;;;;;20.30;99.90;;;;;;5075405;28;19928;-55
2022/09/04 10:52:42;;;;;;;;;;;20.30;99.90;;;;;;5076683;28;19924;-57
2022/09/04 10:55:42;;;;;;;;;;;20.30;99.90;;;;;;5068843;28;19939;-56
2022/09/04 10:58:38;;;;;;;;;;;20.40;99.90;;;;;;5054762;28;19953;-56
2022/09/04 11:01:41;;;;;;;;;;;20.40;99.90;;;;;;5067778;28;20406;-57
2022/09/04 11:04:27;;;;;;;;;;;20.40;99.90;;;;;;5072453;28;19933;-55
2022/09/04 11:07:08;;;;;;;;;;;20.50;99.90;;;;;;5077406;28;19931;-56
2022/09/04 11:09:36;;;;;;;;;;;20.50;99.90;;;;;;5079183;28;19928;-55
2022/09/04 11:12:08;;;;;;;;;;;20.50;99.90;;;;;;5070590;28;20295;-55
2022/09/04 11:14:54;;;;;;;;;;;20.60;99.90;;;;;;5079761;28;19947;-55
2022/09/04 11:17:31;;;;;;;;;;;20.60;99.90;;;;;;5070353;28;19924;-57
2022/09/04 11:20:17;;;;;;;;;;;20.60;99.90;;;;;;5082880;28;19925;-57
2022/09/04 11:22:54;;;;;;;;;;;20.60;99.90;;;;;;5080083;28;19930;-56
2022/09/04 11:25:36;;;;;;;;;;;20.50;99.90;;;;;;5078576;28;19924;-56
2022/09/04 11:28:33;;;;;;;;;;;20.60;99.90;;;;;;5080461;28;20299;-57
2022/09/04 11:31:00;;;;;;;;;;;20.80;99.90;;;;;;5071616;28;19931;-57
2022/09/04 11:33:37;;;;;;;;;;;20.90;99.90;;;;;;5074388;28;19928;-57
2022/09/04 11:36:17;;;;;;;;;;;21.00;99.90;;;;;;5065679;28;19932;-57
2022/09/04 11:38:45;;;;;;;;;;;21.10;99.90;;;;;;5065817;28;19936;-57
2022/09/04 11:41:15;;;;;;;;;;;21.20;99.90;;;;;;5071679;28;20284;-56
2022/09/04 11:43:46;;;;;;;;;;;21.40;99.90;;;;;;5065848;28;19958;-57
2022/09/04 11:46:19;;;;;;;;;;;21.50;99.90;;;;;;5065580;28;20311;-56
2022/09/04 11:48:55;;;;;;;;;;;21.60;99.90;;;;;;5067815;28;19951;-56
2022/09/04 11:51:44;;;;;;;;;;;21.70;99.90;;;;;;5077149;28;19924;-57
2022/09/04 11:54:30;;;;;;;;;;;21.70;99.90;;;;;;5070831;28;19925;-57
2022/09/04 11:56:57;;;;;;;;;;;21.70;99.90;;;;;;5069119;28;19936;-58
2022/09/04 11:59:48;;;;;;;;;;;21.80;99.90;;;;;;5067009;28;19939;-57
2022/09/04 12:02:25;;;;;;;;;;;22.00;99.90;;;;;;5048593;28;19928;-57
2022/09/04 12:05:09;;;;;;;;;;;22.10;99.90;;;;;;5088645;28;19931;-57
2022/09/04 12:07:42;;;;;;;;;;;22.20;99.90;;;;;;5079387;28;19951;-57
2022/09/04 12:10:22;;;;;;;;;;;22.20;99.90;;;;;;5067577;28;19932;-57
2022/09/04 12:12:59;;;;;;;;;;;22.20;99.90;;;;;;5066344;28;20378;-57
2022/09/04 12:15:59;;;;;;;;;;;22.20;99.90;;;;;;5073411;28;19925;-56
2022/09/04 12:18:49;;;;;;;;;;;22.10;99.90;;;;;;5070842;28;19925;-56
2022/09/04 12:21:17;;;;;;;;;;;22.10;99.90;;;;;;5065701;28;19925;-57
2022/09/04 12:23:47;;;;;;;;;;;22.10;99.90;;;;;;5073127;28;19925;-57
2022/09/04 12:26:16;;;;;;;;;;;22.10;99.90;;;;;;5064043;28;19933;-60
2022/09/04 12:28:50;;;;;;;;;;;22.10;99.90;;;;;;5070663;28;19939;-56
2022/09/04 12:31:23;;;;;;;;;;;22.10;99.90;;;;;;5070842;28;19947;-58
2022/09/04 12:34:06;;;;;;;;;;;22.20;99.90;;;;;;5078525;28;19935;-55
2022/09/04 12:36:46;;;;;;;;;;;22.30;99.90;;;;;;5081238;28;19930;-57
2022/09/04 12:39:19;;;;;;;;;;;22.30;99.90;;;;;;5084843;28;19928;-58
2022/09/04 12:41:48;;;;;;;;;;;22.40;99.90;;;;;;5077230;28;20421;-58
2022/09/04 12:44:34;;;;;;;;;;;22.50;99.90;;;;;;5075385;28;19924;-56
2022/09/04 12:47:12;;;;;;;;;;;22.60;99.90;;;;;;5071625;28;20402;-55
2022/09/04 12:49:47;;;;;;;;;;;22.50;99.90;;;;;;5072580;28;20433;-57
2022/09/04 12:52:24;;;;;;;;;;;22.40;99.90;;;;;;5069046;28;19935;-55
2022/09/04 12:55:00;;;;;;;;;;;22.30;99.90;;;;;;5085168;28;19935;-56
2022/09/04 12:57:32;;;;;;;;;;;22.20;99.90;;;;;;5077117;28;19932;-56
2022/09/04 13:00:11;;;;;;;;;;;22.20;99.90;;;;;;5078718;28;19928;-56
2022/09/04 13:02:51;;;;;;;;;;;22.20;99.90;;;;;;5079046;28;20398;-57
2022/09/04 13:05:32;;;;;;;;;;;22.20;99.90;;;;;;5086635;28;19935;-57
2022/09/04 13:08:17;;;;;;;;;;;22.20;99.90;;;;;;5084095;28;20298;-56
2022/09/04 13:10:50;;;;;;;;;;;22.30;99.90;;;;;;5066567;28;20346;-56
2022/09/04 13:13:23;;;;;;;;;;;22.30;99.90;;;;;;5079400;28;20360;-56
2022/09/04 13:16:18;;;;;;;;;;;22.20;99.90;;;;;;5071158;28;19924;-55
2022/09/04 13:18:59;;;;;;;;;;;22.10;99.90;;;;;;5060911;28;20327;-56
2022/09/04 13:21:27;;;;;;;;;;;22.00;99.90;;;;;;5083028;28;20280;-56
2022/09/04 13:23:56;;;;;;;;;;;21.90;99.90;;;;;;5076726;28;19925;-56
2022/09/04 13:26:36;;;;;;;;;;;21.80;99.90;;;;;;5072323;28;20304;-58
2022/09/04 13:29:24;;;;;;;;;;;22.00;99.90;;;;;;5083550;28;19925;-55
2022/09/04 13:31:58;;;;;;;;;;;22.40;99.90;;;;;;5072745;28;20300;-55
2022/09/04 13:34:29;;;;;;;;;;;22.60;99.90;;;;;;5074358;28;19936;-56
2022/09/04 13:37:03;;;;;;;;;;;22.70;99.90;;;;;;5089099;28;19990;-55
2022/09/04 13:39:46;;;;;;;;;;;22.90;99.90;;;;;;5073825;28;19935;-55
2022/09/04 13:42:19;;;;;;;;;;;23.30;99.90;;;;;;5068556;28;19932;-56
2022/09/04 13:45:04;;;;;;;;;;;24.10;99.90;;;;;;5075182;28;20314;-57
2022/09/04 13:47:49;;;;;;;;;;;24.50;99.00;;;;;;5071776;28;19924;-57
2022/09/04 13:50:31;;;;;;;;;;;25.30;98.10;;;;;;5066884;28;19931;-57
2022/09/04 13:53:09;;;;;;;;;;;25.50;97.40;;;;;;5068156;28;19983;-57
2022/09/04 13:55:38;;;;;;;;;;;25.70;97.40;;;;;;5070722;28;19942;-56
2022/09/04 13:58:19;;;;;;;;;;;25.70;97.20;;;;;;5069700;28;19939;-56
2022/09/04 14:00:59;;;;;;;;;;;25.50;97.20;;;;;;5074976;28;20303;-56
2022/09/04 14:03:43;;;;;;;;;;;25.10;97.20;;;;;;5070658;28;20379;-59
2022/09/04 14:06:13;;;;;;;;;;;24.70;97.50;;;;;;5076101;28;19928;-56
2022/09/04 14:08:42;;;;;;;;;;;24.30;98.40;;;;;;5065567;28;20299;-55
2022/09/04 14:11:10;;;;;;;;;;;24.00;98.70;;;;;;5066757;28;20398;-57
2022/09/04 14:13:46;;;;;;;;;;;23.60;99.10;;;;;;5074036;28;19924;-57
2022/09/04 14:16:14;;;;;;;;;;;23.30;99.50;;;;;;5066029;28;19932;-59
2022/09/04 14:18:51;;;;;;;;;;;23.10;99.90;;;;;;5073259;28;19928;-55
2022/09/04 14:21:23;;;;;;;;;;;22.90;99.90;;;;;;5066491;28;19924;-55
2022/09/04 14:24:09;;;;;;;;;;;22.70;99.90;;;;;;5080350;28;20323;-56
2022/09/04 14:26:53;;;;;;;;;;;22.50;99.90;;;;;;5086678;28;19936;-57
2022/09/04 14:29:27;;;;;;;;;;;22.30;99.90;;;;;;5103647;28;19923;-56
2022/09/04 14:32:03;;;;;;;;;;;22.30;99.90;;;;;;5107156;28;19935;-56
2022/09/04 14:34:47;;;;;;;;;;;22.30;99.90;;;;;;5087120;28;19933;-57
2022/09/04 14:37:24;;;;;;;;;;;22.30;99.90;;;;;;5105563;28;20394;-56
2022/09/04 14:39:56;;;;;;;;;;;22.30;99.90;;;;;;5086474;28;19928;-55
2022/09/04 14:42:30;;;;;;;;;;;22.50;99.90;;;;;;5086058;28;19936;-56
2022/09/04 14:45:17;;;;;;;;;;;22.80;99.90;;;;;;5086132;28;19924;-55
2022/09/04 14:47:53;;;;;;;;;;;23.00;99.90;;;;;;5083286;28;19924;-56
2022/09/04 14:50:29;;;;;;;;;;;23.10;99.90;;;;;;5086089;28;19924;-56
2022/09/04 14:52:58;;;;;;;;;;;23.30;99.90;;;;;;5085445;28;19935;-55
2022/09/04 14:55:30;;;;;;;;;;;23.40;99.90;;;;;;5068001;28;19924;-55
2022/09/04 14:58:18;;;;;;;;;;;23.30;99.90;;;;;;5092545;28;19930;-55
2022/09/04 15:00:56;;;;;;;;;;;23.20;99.90;;;;;;5106251;28;19946;-57
2022/09/04 15:03:29;;;;;;;;;;;23.30;99.90;;;;;;5095806;28;20450;-58
2022/09/04 15:06:00;;;;;;;;;;;23.40;99.90;;;;;;5097640;28;19931;-55
2022/09/04 15:08:32;;;;;;;;;;;23.50;99.90;;;;;;5095283;28;19931;-55
2022/09/04 15:11:12;;;;;;;;;;;23.50;99.90;;;;;;5086007;28;20379;-57
2022/09/04 15:13:52;;;;;;;;;;;23.50;99.90;;;;;;5085598;28;19942;-58
2022/09/04 15:16:23;;;;;;;;;;;23.40;99.90;;;;;;5086070;28;19931;-58
2022/09/04 15:18:54;;;;;;;;;;;23.40;99.90;;;;;;5084966;28;19935;-57
2022/09/04 15:21:21;;;;;;;;;;;23.40;99.90;;;;;;5086324;28;19928;-57